Time;durP1;ratioP1;P1;durP2;ratioP2;P2;SDS_P1;SDS_P2;PMS_P1;PMS_P2;Temp;Humidity;BMP_temperature;BMP_pressure;BME280_temperature;BME280_humidity;BME280_pressure;Samples;Min_cycle;Max_cycle;Signal;HPM_P1;HPM_P2
2024/01/17 00:00:21;;;;;;;;;;;;;;;-3.01;100.00;100251.19;5089846;28;19947;-39
2024/01/17 00:02:46;;;;;;;;;;;;;;;-3.02;100.00;100252.19;5090462;28;19962;-39
2024/01/17 00:05:12;;;;;;;;;;;;;;;-3.03;100.00;100241.72;5090031;28;19912;-39
2024/01/17 00:07:37;;;;;;;;;;;;;;;-3.04;100.00;100237.44;5079355;28;19912;-39
2024/01/17 00:10:03;;;;;;;;;;;;;;;-3.07;100.00;100228.00;5077338;28;19918;-39
2024/01/17 00:12:29;;;;;;;;;;;;;;;-3.10;100.00;100225.66;5077076;28;19917;-39
2024/01/17 00:14:54;;;;;;;;;;;;;;;-3.10;100.00;100217.75;5076361;28;20403;-39
2024/01/17 00:17:19;;;;;;;;;;;;;;;-3.13;100.00;100218.03;5076672;28;19920;-39
2024/01/17 00:19:45;;;;;;;;;;;;;;;-3.13;100.00;100215.41;5076095;28;20379;-39
2024/01/17 00:22:11;;;;;;;;;;;;;;;-3.15;100.00;100212.91;5076062;28;20380;-39
2024/01/17 00:24:36;;;;;;;;;;;;;;;-3.17;100.00;100214.09;5076199;28;19912;-39
2024/01/17 00:27:03;;;;;;;;;;;;;;;-3.17;100.00;100198.22;5076769;28;19928;-39
2024/01/17 00:29:28;;;;;;;;;;;;;;;-3.20;100.00;100190.59;5075870;28;19919;-39
2024/01/17 00:31:53;;;;;;;;;;;;;;;-3.23;100.00;100182.97;5076636;28;19912;-39
2024/01/17 00:34:18;;;;;;;;;;;;;;;-3.29;100.00;100191.53;5076336;28;19912;-39
2024/01/17 00:36:44;;;;;;;;;;;;;;;-3.31;100.00;100178.47;5075962;28;19920;-39
2024/01/17 00:39:09;;;;;;;;;;;;;;;-3.32;100.00;100182.06;5076005;28;19916;-39
2024/01/17 00:41:34;;;;;;;;;;;;;;;-3.35;100.00;100179.75;5076463;28;19912;-39
2024/01/17 00:43:59;;;;;;;;;;;;;;;-3.35;100.00;100166.53;5075595;28;19916;-39
2024/01/17 00:46:25;;;;;;;;;;;;;;;-3.35;100.00;100169.19;5075887;28;20011;-39
2024/01/17 00:48:50;;;;;;;;;;;;;;;-3.36;100.00;100162.25;5075736;28;19916;-39
2024/01/17 00:51:22;;;;;;;;;;;;;;;-3.35;100.00;100155.16;5076334;28;19912;-39
2024/01/17 00:53:47;;;;;;;;;;;;;;;-3.34;100.00;100143.56;5075953;28;19912;-39
2024/01/17 00:56:13;;;;;;;;;;;;;;;-3.38;100.00;100143.88;5076130;28;20303;-39
2024/01/17 00:58:38;;;;;;;;;;;;;;;-3.42;100.00;100137.25;5076041;28;19912;-39
2024/01/17 01:01:03;;;;;;;;;;;;;;;-3.42;100.00;100139.06;5076165;28;19986;-39
2024/01/17 01:03:29;;;;;;;;;;;;;;;-3.43;100.00;100135.59;5075491;28;20276;-39
2024/01/17 01:05:54;;;;;;;;;;;;;;;-3.41;100.00;100133.66;5076261;28;20269;-39
2024/01/17 01:08:19;;;;;;;;;;;;;;;-3.39;100.00;100126.38;5075369;28;19916;-39
2024/01/17 01:10:44;;;;;;;;;;;;;;;-3.40;100.00;100124.72;5075381;28;19912;-39
2024/01/17 01:13:09;;;;;;;;;;;;;;;-3.41;100.00;100123.06;5075617;28;19958;-39
2024/01/17 01:15:35;;;;;;;;;;;;;;;-3.43;100.00;100113.63;5075196;28;19913;-39
2024/01/17 01:18:00;;;;;;;;;;;;;;;-3.46;100.00;100120.06;5074593;28;19916;-39
2024/01/17 01:20:25;;;;;;;;;;;;;;;-3.49;100.00;100125.66;5074848;28;20004;-39
2024/01/17 01:22:50;;;;;;;;;;;;;;;-3.48;100.00;100119.38;5075167;28;19947;-39
2024/01/17 01:25:15;;;;;;;;;;;;;;;-3.48;100.00;100116.75;5075020;28;19920;-39
2024/01/17 01:27:41;;;;;;;;;;;;;;;-3.51;100.00;100117.06;5075279;28;19912;-39
2024/01/17 01:30:07;;;;;;;;;;;;;;;-3.50;100.00;100116.09;5075187;28;19912;-39
2024/01/17 01:32:32;;;;;;;;;;;;;;;-3.48;100.00;100100.06;5075163;28;19912;-39
2024/01/17 01:34:57;;;;;;;;;;;;;;;-3.47;100.00;100105.19;5074543;28;20276;-39
2024/01/17 01:37:22;;;;;;;;;;;;;;;-3.46;100.00;100106.03;5074567;28;20418;-39
2024/01/17 01:39:47;;;;;;;;;;;;;;;-3.46;100.00;100111.31;5074790;28;20042;-39
2024/01/17 01:42:13;;;;;;;;;;;;;;;-3.46;100.00;100101.56;5074744;28;19966;-39
2024/01/17 01:44:38;;;;;;;;;;;;;;;-3.44;100.00;100102.22;5074998;28;19919;-39
2024/01/17 01:47:03;;;;;;;;;;;;;;;-3.45;100.00;100103.22;5075526;28;19913;-39
2024/01/17 01:49:29;;;;;;;;;;;;;;;-3.45;100.00;100105.03;5075091;28;19912;-39
2024/01/17 01:51:54;;;;;;;;;;;;;;;-3.45;100.00;100105.03;5074391;28;20296;-39
2024/01/17 01:54:21;;;;;;;;;;;;;;;-3.48;100.00;100103.53;5075048;28;19916;-39
2024/01/17 01:56:46;;;;;;;;;;;;;;;-3.49;100.00;100087.84;5074830;28;20352;-39
2024/01/17 01:59:12;;;;;;;;;;;;;;;-3.49;100.00;100093.94;5074726;28;19926;-39
2024/01/17 02:01:37;;;;;;;;;;;;;;;-3.51;100.00;100095.94;5074378;28;19998;-39
2024/01/17 02:04:03;;;;;;;;;;;;;;;-3.50;100.00;100087.00;5074039;28;19966;-39
2024/01/17 02:06:30;;;;;;;;;;;;;;;-3.50;100.00;100087.00;5075145;28;20000;-39
2024/01/17 02:08:55;;;;;;;;;;;;;;;-3.51;100.00;100074.78;5074201;28;20011;-39
2024/01/17 02:11:21;;;;;;;;;;;;;;;-3.53;100.00;100070.63;5074195;28;20004;-39
2024/01/17 02:13:47;;;;;;;;;;;;;;;-3.53;100.00;100060.06;5073859;28;19964;-39
2024/01/17 02:16:13;;;;;;;;;;;;;;;-3.52;100.00;100061.72;5074365;28;19919;-39
2024/01/17 02:18:38;;;;;;;;;;;;;;;-3.50;100.00;100059.75;5074132;28;19919;-39
2024/01/17 02:21:04;;;;;;;;;;;;;;;-3.50;100.00;100060.56;5074057;28;19912;-39
2024/01/17 02:23:29;;;;;;;;;;;;;;;-3.50;100.00;100054.47;5074015;28;19919;-39
2024/01/17 02:25:55;;;;;;;;;;;;;;;-3.50;100.00;100057.94;5074349;28;19912;-39
2024/01/17 02:28:21;;;;;;;;;;;;;;;-3.48;100.00;100050.66;5073975;28;19916;-39
2024/01/17 02:30:46;;;;;;;;;;;;;;;-3.50;100.00;100042.06;5073733;28;19913;-39
2024/01/17 02:33:12;;;;;;;;;;;;;;;-3.48;100.00;100036.63;5074205;28;19913;-39
2024/01/17 02:35:38;;;;;;;;;;;;;;;-3.45;100.00;100033.66;5074563;28;19912;-39
2024/01/17 02:38:03;;;;;;;;;;;;;;;-3.50;100.00;100031.50;5074170;28;20254;-39
2024/01/17 02:40:28;;;;;;;;;;;;;;;-3.49;100.00;100014.66;5073812;28;20261;-39
2024/01/17 02:42:54;;;;;;;;;;;;;;;-3.50;100.00;100018.28;5074126;28;19937;-39
2024/01/17 02:45:19;;;;;;;;;;;;;;;-3.49;100.00;100011.19;5073729;28;19958;-39
2024/01/17 02:47:44;;;;;;;;;;;;;;;-3.53;100.00;100005.38;5074052;28;19959;-39
2024/01/17 02:50:14;;;;;;;;;;;;;;;-3.54;100.00;100001.09;5073735;28;20296;-39
2024/01/17 02:52:39;;;;;;;;;;;;;;;-3.54;100.00;99994.97;5073748;28;19912;-39
2024/01/17 02:55:05;;;;;;;;;;;;;;;-3.56;100.00;99994.28;5073696;28;19923;-39
2024/01/17 02:57:30;;;;;;;;;;;;;;;-3.57;100.00;99996.09;5074234;28;20002;-39
2024/01/17 02:59:55;;;;;;;;;;;;;;;-3.58;100.00;99993.63;5073627;28;20291;-39
2024/01/17 03:02:21;;;;;;;;;;;;;;;-3.59;100.00;99987.53;5074415;28;19970;-39
2024/01/17 03:04:46;;;;;;;;;;;;;;;-3.59;100.00;99989.34;5073602;28;19913;-39
2024/01/17 03:07:13;;;;;;;;;;;;;;;-3.61;100.00;99984.22;5073590;28;19920;-39
2024/01/17 03:09:38;;;;;;;;;;;;;;;-3.63;100.00;99975.63;5073486;28;19912;-39
2024/01/17 03:12:03;;;;;;;;;;;;;;;-3.61;100.00;99968.38;5073521;28;19912;-39
2024/01/17 03:14:31;;;;;;;;;;;;;;;-3.60;100.00;99956.81;5073993;28;20384;-39
2024/01/17 03:16:56;;;;;;;;;;;;;;;-3.58;100.00;99956.63;5074101;28;20303;-39
2024/01/17 03:19:22;;;;;;;;;;;;;;;-3.61;100.00;99960.44;5073208;28;19912;-39
2024/01/17 03:21:50;;;;;;;;;;;;;;;-3.63;100.00;99957.13;5073197;28;19912;-39
2024/01/17 03:24:15;;;;;;;;;;;;;;;-3.66;100.00;99954.78;5073341;28;19920;-39
2024/01/17 03:26:41;;;;;;;;;;;;;;;-3.69;100.00;99948.03;5073909;28;19912;-39
2024/01/17 03:29:06;;;;;;;;;;;;;;;-3.72;100.00;99942.22;5073324;28;20009;-39
2024/01/17 03:31:31;;;;;;;;;;;;;;;-3.75;100.00;99934.63;5073009;28;19919;-39
2024/01/17 03:33:56;;;;;;;;;;;;;;;-3.78;100.00;99924.38;5074110;28;19912;-39
2024/01/17 03:36:22;;;;;;;;;;;;;;;-3.81;100.00;99916.78;5073549;28;19948;-39
2024/01/17 03:38:47;;;;;;;;;;;;;;;-3.85;100.00;99912.81;5073836;28;19958;-39
2024/01/17 03:41:12;;;;;;;;;;;;;;;-3.86;100.00;99904.03;5073611;28;19919;-39
2024/01/17 03:43:37;;;;;;;;;;;;;;;-3.88;100.00;99888.38;5077425;28;19916;-39
2024/01/17 03:46:03;;;;;;;;;;;;;;;-3.85;100.00;99887.22;5076918;28;19927;-38
2024/01/17 03:48:28;;;;;;;;;;;;;;;-3.87;100.00;99886.53;5077226;28;19920;-38
2024/01/17 03:50:53;;;;;;;;;;;;;;;-3.89;100.00;99877.97;5076884;28;20364;-38
2024/01/17 03:53:18;;;;;;;;;;;;;;;-3.87;100.00;99875.97;5077130;28;19912;-38
2024/01/17 03:55:44;;;;;;;;;;;;;;;-3.86;100.00;99874.97;5077373;28;19917;-38
2024/01/17 03:58:09;;;;;;;;;;;;;;;-3.85;100.00;99870.56;5076987;28;20283;-38
2024/01/17 04:00:34;;;;;;;;;;;;;;;-3.86;100.00;99864.41;5077046;28;19935;-38
2024/01/17 04:02:59;;;;;;;;;;;;;;;-3.85;100.00;99855.53;5077238;28;20109;-39
2024/01/17 04:05:25;;;;;;;;;;;;;;;-3.86;100.00;99839.81;5076637;28;20376;-39
2024/01/17 04:07:50;;;;;;;;;;;;;;;-3.86;100.00;99843.28;5076532;28;20372;-39
2024/01/17 04:10:16;;;;;;;;;;;;;;;-3.86;100.00;99843.28;5076234;28;20424;-39
2024/01/17 04:12:41;;;;;;;;;;;;;;;-3.85;100.00;99828.28;5076477;28;19912;-39
2024/01/17 04:15:06;;;;;;;;;;;;;;;-3.86;100.00;99822.16;5076561;28;19912;-39
2024/01/17 04:17:32;;;;;;;;;;;;;;;-3.88;100.00;99813.56;5076099;28;20383;-39
2024/01/17 04:19:57;;;;;;;;;;;;;;;-3.88;100.00;99803.00;5076028;28;19916;-39
2024/01/17 04:22:23;;;;;;;;;;;;;;;-3.91;100.00;99787.47;5076590;28;19912;-39
2024/01/17 04:24:48;;;;;;;;;;;;;;;-3.93;100.00;99800.84;5077040;28;19966;-39
2024/01/17 04:27:13;;;;;;;;;;;;;;;-3.93;100.00;99790.28;5076487;28;19912;-39
2024/01/17 04:29:38;;;;;;;;;;;;;;;-3.94;100.00;99788.66;5076146;28;19913;-39
2024/01/17 04:32:04;;;;;;;;;;;;;;;-3.93;100.00;99774.44;5077035;28;20260;-39
2024/01/17 04:34:29;;;;;;;;;;;;;;;-3.91;100.00;99769.81;5076359;28;19967;-39
2024/01/17 04:36:54;;;;;;;;;;;;;;;-3.92;100.00;99757.59;5076827;28;19912;-39
2024/01/17 04:39:20;;;;;;;;;;;;;;;-3.93;100.00;99755.97;5075704;28;20292;-39
2024/01/17 04:41:45;;;;;;;;;;;;;;;-3.92;100.00;99744.41;5076219;28;20276;-39
2024/01/17 04:44:11;;;;;;;;;;;;;;;-3.94;100.00;99735.00;5075904;28;19919;-39
2024/01/17 04:46:36;;;;;;;;;;;;;;;-3.95;100.00;99738.63;5076200;28;20479;-39
2024/01/17 04:49:02;;;;;;;;;;;;;;;-3.97;100.00;99736.13;5075798;28;19918;-39
2024/01/17 04:51:27;;;;;;;;;;;;;;;-3.97;100.00;99730.84;5075803;28;19913;-39
2024/01/17 04:53:52;;;;;;;;;;;;;;;-3.97;100.00;99730.03;5075627;28;19938;-39
2024/01/17 04:56:18;;;;;;;;;;;;;;;-3.98;100.00;99729.22;5074085;28;19917;-39
2024/01/17 04:58:45;;;;;;;;;;;;;;;-4.01;100.00;99726.88;5075862;28;19919;-39
2024/01/17 05:01:11;;;;;;;;;;;;;;;-4.04;100.00;99719.31;5075874;28;20011;-39
2024/01/17 05:03:36;;;;;;;;;;;;;;;-4.06;100.00;99721.28;5075531;28;19999;-39
2024/01/17 05:06:02;;;;;;;;;;;;;;;-4.07;100.00;99717.00;5075798;28;20398;-39
2024/01/17 05:08:27;;;;;;;;;;;;;;;-4.09;100.00;99716.34;5075351;28;19912;-39
2024/01/17 05:10:52;;;;;;;;;;;;;;;-4.13;100.00;99701.81;5075748;28;19919;-39
2024/01/17 05:13:18;;;;;;;;;;;;;;;-4.17;100.00;99698.66;5075560;28;20015;-38
2024/01/17 05:15:43;;;;;;;;;;;;;;;-4.20;100.00;99693.75;5075247;28;20225;-38
2024/01/17 05:18:11;;;;;;;;;;;;;;;-4.22;100.00;99689.59;5075249;28;20352;-38
2024/01/17 05:20:37;;;;;;;;;;;;;;;-4.25;100.00;99690.72;5075276;28;19958;-38
2024/01/17 05:23:02;;;;;;;;;;;;;;;-4.24;100.00;99688.94;5075226;28;19912;-38
2024/01/17 05:25:28;;;;;;;;;;;;;;;-4.25;100.00;99685.44;5075315;28;19913;-38
2024/01/17 05:27:53;;;;;;;;;;;;;;;-4.24;100.00;99691.59;5075062;28;20288;-38
2024/01/17 05:30:23;;;;;;;;;;;;;;;-4.25;100.00;99671.44;5075006;28;19954;-38
2024/01/17 05:32:48;;;;;;;;;;;;;;;-4.23;100.00;99670.28;5075520;28;20367;-38
2024/01/17 05:35:16;;;;;;;;;;;;;;;-4.20;100.00;99662.06;5074844;28;19913;-38
2024/01/17 05:37:42;;;;;;;;;;;;;;;-4.15;100.00;99665.03;5075126;28;20007;-38
2024/01/17 05:40:08;;;;;;;;;;;;;;;-4.14;100.00;99650.00;5074467;28;19947;-39
2024/01/17 05:42:33;;;;;;;;;;;;;;;-4.13;100.00;99650.84;5074777;28;19919;-39
2024/01/17 05:44:59;;;;;;;;;;;;;;;-4.13;100.00;99643.72;5074701;28;19912;-39
2024/01/17 05:47:24;;;;;;;;;;;;;;;-4.14;100.00;99634.16;5074925;28;19912;-39
2024/01/17 05:49:49;;;;;;;;;;;;;;;-4.17;100.00;99629.19;5074928;28;19939;-39
2024/01/17 05:52:15;;;;;;;;;;;;;;;-4.19;100.00;99618.00;5075146;28;19989;-39
2024/01/17 05:54:40;;;;;;;;;;;;;;;-4.21;100.00;99615.50;5074877;28;19916;-39
2024/01/17 05:57:05;;;;;;;;;;;;;;;-4.21;100.00;99623.41;5075093;28;19912;-39
2024/01/17 05:59:31;;;;;;;;;;;;;;;-4.22;100.00;99610.41;5074663;28;19916;-39
2024/01/17 06:01:56;;;;;;;;;;;;;;;-4.25;100.00;99613.34;5074664;28;19931;-39
2024/01/17 06:04:21;;;;;;;;;;;;;;;-4.27;100.00;99613.53;5073819;28;20019;-39
2024/01/17 06:06:46;;;;;;;;;;;;;;;-4.28;100.00;99609.25;5074254;28;19920;-39
2024/01/17 06:09:13;;;;;;;;;;;;;;;-4.28;100.00;99611.06;5074204;28;19919;-39
2024/01/17 06:11:38;;;;;;;;;;;;;;;-4.27;100.00;99596.88;5074492;28;19957;-39
2024/01/17 06:14:03;;;;;;;;;;;;;;;-4.27;100.00;99599.50;5074476;28;20006;-39
2024/01/17 06:16:29;;;;;;;;;;;;;;;-4.27;100.00;99597.69;5074668;28;19917;-39
2024/01/17 06:18:54;;;;;;;;;;;;;;;-4.29;100.00;99594.41;5074104;28;19919;-39
2024/01/17 06:21:20;;;;;;;;;;;;;;;-4.27;100.00;99596.88;5074074;28;19966;-39
2024/01/17 06:23:45;;;;;;;;;;;;;;;-4.31;100.00;99587.63;5074341;28;19963;-39
2024/01/17 06:26:10;;;;;;;;;;;;;;;-4.31;100.00;99582.34;5074583;28;19952;-39
2024/01/17 06:28:36;;;;;;;;;;;;;;;-4.30;100.00;99574.25;5073693;28;19923;-39
2024/01/17 06:31:03;;;;;;;;;;;;;;;-4.32;100.00;99578.06;5074033;28;19916;-39
2024/01/17 06:33:29;;;;;;;;;;;;;;;-4.31;100.00;99575.25;5073883;28;19940;-39
2024/01/17 06:35:56;;;;;;;;;;;;;;;-4.28;100.00;99579.41;5073881;28;19982;-39
2024/01/17 06:38:21;;;;;;;;;;;;;;;-4.24;100.00;99565.69;5074754;28;20296;-39
2024/01/17 06:40:46;;;;;;;;;;;;;;;-4.22;100.00;99568.16;5073907;28;19927;-39
2024/01/17 06:43:12;;;;;;;;;;;;;;;-4.20;100.00;99552.97;5074111;28;20398;-39
2024/01/17 06:45:37;;;;;;;;;;;;;;;-4.17;100.00;99550.81;5073464;28;19912;-39
2024/01/17 06:48:03;;;;;;;;;;;;;;;-4.13;100.00;99545.22;5073823;28;19919;-39
2024/01/17 06:50:28;;;;;;;;;;;;;;;-4.13;100.00;99555.78;5073972;28;19913;-39
2024/01/17 06:52:55;;;;;;;;;;;;;;;-4.13;100.00;99548.69;5073430;28;19913;-39
2024/01/17 06:55:20;;;;;;;;;;;;;;;-4.12;100.00;99547.69;5073282;28;19926;-39
2024/01/17 06:57:45;;;;;;;;;;;;;;;-4.09;100.00;99543.91;5073666;28;19916;-39
2024/01/17 07:00:13;;;;;;;;;;;;;;;-4.07;100.00;99549.81;5073622;28;20309;-39
2024/01/17 07:02:39;;;;;;;;;;;;;;;-4.07;100.00;99542.72;5073295;28;19919;-39
2024/01/17 07:05:05;;;;;;;;;;;;;;;-4.06;100.00;99535.63;5073545;28;19912;-39
2024/01/17 07:07:30;;;;;;;;;;;;;;;-4.07;100.00;99532.16;5073604;28;20024;-39
2024/01/17 07:09:55;;;;;;;;;;;;;;;-4.07;100.00;99526.06;5073200;28;19913;-39
2024/01/17 07:12:21;;;;;;;;;;;;;;;-4.07;100.00;99524.25;5074109;28;19912;-39
2024/01/17 07:14:48;;;;;;;;;;;;;;;-4.06;100.00;99525.88;5073133;28;19912;-39
2024/01/17 07:17:13;;;;;;;;;;;;;;;-4.05;100.00;99517.00;5075367;28;19913;-39
2024/01/17 07:19:38;;;;;;;;;;;;;;;-4.04;100.00;99512.53;5078026;28;19935;-39
2024/01/17 07:22:03;;;;;;;;;;;;;;;-4.03;100.00;99507.06;5077514;28;19968;-39
2024/01/17 07:24:29;;;;;;;;;;;;;;;-3.99;100.00;99500.47;5077366;28;19924;-39
2024/01/17 07:26:54;;;;;;;;;;;;;;;-4.00;100.00;99487.41;5077125;28;20210;-39
2024/01/17 07:29:19;;;;;;;;;;;;;;;-4.02;100.00;99482.31;5076429;28;20377;-39
2024/01/17 07:31:44;;;;;;;;;;;;;;;-4.02;100.00;99484.13;5076917;28;19912;-39
2024/01/17 07:34:10;;;;;;;;;;;;;;;-4.01;100.00;99470.75;5077228;28;19913;-39
2024/01/17 07:36:35;;;;;;;;;;;;;;;-4.02;100.00;99469.09;5076841;28;19913;-39
2024/01/17 07:39:00;;;;;;;;;;;;;;;-4.02;100.00;99469.09;5077054;28;19912;-39
2024/01/17 07:41:25;;;;;;;;;;;;;;;-4.01;100.00;99460.19;5077399;28;19912;-39
2024/01/17 07:43:51;;;;;;;;;;;;;;;-3.97;100.00;99463.31;5076548;28;20368;-39
2024/01/17 07:46:16;;;;;;;;;;;;;;;-3.94;100.00;99455.06;5077287;28;19920;-39
2024/01/17 07:48:42;;;;;;;;;;;;;;;-3.92;100.00;99448.59;5076514;28;19955;-39
2024/01/17 07:51:07;;;;;;;;;;;;;;;-3.88;100.00;99449.09;5077580;28;19919;-39
2024/01/17 07:53:32;;;;;;;;;;;;;;;-3.94;100.00;99434.75;5076651;28;19912;-39
2024/01/17 07:55:59;;;;;;;;;;;;;;;-3.84;100.00;99436.38;5076686;28;19916;-39
2024/01/17 07:58:24;;;;;;;;;;;;;;;-3.82;100.00;99421.16;5076182;28;20020;-39
2024/01/17 08:00:49;;;;;;;;;;;;;;;-3.78;100.00;99427.75;5076712;28;19918;-39
2024/01/17 08:03:15;;;;;;;;;;;;;;;-3.75;100.00;99432.69;5076984;28;19912;-39
2024/01/17 08:05:40;;;;;;;;;;;;;;;-3.75;100.00;99419.47;5076645;28;19909;-39
2024/01/17 08:08:06;;;;;;;;;;;;;;;-3.73;100.00;99420.13;5077048;28;19919;-39
2024/01/17 08:10:32;;;;;;;;;;;;;;;-3.70;100.00;99414.50;5076805;28;19908;-39
2024/01/17 08:12:57;;;;;;;;;;;;;;;-3.67;100.00;99419.41;5076277;28;19919;-39
2024/01/17 08:15:22;;;;;;;;;;;;;;;-3.65;100.00;99412.97;5076389;28;19912;-39
2024/01/17 08:17:50;;;;;;;;;;;;;;;-3.59;100.00;99405.34;5076202;28;20300;-39
2024/01/17 08:20:16;;;;;;;;;;;;;;;-3.56;100.00;99404.97;5076389;28;19913;-39
2024/01/17 08:22:41;;;;;;;;;;;;;;;-3.56;100.00;99404.97;5076304;28;20412;-39
2024/01/17 08:25:07;;;;;;;;;;;;;;;-3.51;100.00;99410.59;5076619;28;20003;-39
2024/01/17 08:27:33;;;;;;;;;;;;;;;-3.49;100.00;99400.66;5076569;28;20244;-39
2024/01/17 08:29:58;;;;;;;;;;;;;;;-3.46;100.00;99395.84;5075930;28;19912;-39
2024/01/17 08:32:23;;;;;;;;;;;;;;;-3.45;100.00;99389.56;5076994;28;19912;-39
2024/01/17 08:34:48;;;;;;;;;;;;;;;-3.43;100.00;99382.25;5076022;28;19982;-39
2024/01/17 08:37:13;;;;;;;;;;;;;;;-3.39;100.00;99378.28;5076379;28;19943;-39
2024/01/17 08:39:43;;;;;;;;;;;;;;;-3.35;100.00;99373.47;5076271;28;20009;-39
2024/01/17 08:42:08;;;;;;;;;;;;;;;-3.33;100.00;99375.91;5076254;28;19919;-39
2024/01/17 08:44:34;;;;;;;;;;;;;;;-3.34;100.00;99364.53;5075663;28;20293;-39
2024/01/17 08:47:00;;;;;;;;;;;;;;;-3.32;100.00;99364.34;5076111;28;19920;-39
2024/01/17 08:49:25;;;;;;;;;;;;;;;-3.34;100.00;99353.94;5075581;28;19958;-39
2024/01/17 08:51:50;;;;;;;;;;;;;;;-3.32;100.00;99353.75;5075824;28;19920;-39
2024/01/17 08:54:16;;;;;;;;;;;;;;;-3.30;100.00;99342.03;5075748;28;20011;-39
2024/01/17 08:56:41;;;;;;;;;;;;;;;-3.28;100.00;99333.91;5075473;28;19966;-39
2024/01/17 08:59:06;;;;;;;;;;;;;;;-3.26;100.00;99337.22;5075689;28;20379;-39
2024/01/17 09:01:32;;;;;;;;;;;;;;;-3.21;100.00;99333.03;5074704;28;20340;-39
2024/01/17 09:03:57;;;;;;;;;;;;;;;-3.18;100.00;99339.75;5075869;28;20014;-39
2024/01/17 09:06:22;;;;;;;;;;;;;;;-3.16;100.00;99335.94;5075878;28;20275;-39
2024/01/17 09:08:47;;;;;;;;;;;;;;;-3.11;100.00;99338.06;5075479;28;20284;-39
2024/01/17 09:11:12;;;;;;;;;;;;;;;-3.06;100.00;99321.66;5075388;28;20003;-39
2024/01/17 09:13:38;;;;;;;;;;;;;;;-3.03;100.00;99319.44;5075930;28;19919;-39
2024/01/17 09:16:05;;;;;;;;;;;;;;;-2.97;100.00;99310.81;5075245;28;19926;-38
2024/01/17 09:18:30;;;;;;;;;;;;;;;-2.96;100.00;99307.16;5075283;28;20014;-38
2024/01/17 09:20:56;;;;;;;;;;;;;;;-2.94;100.00;99305.16;5075783;28;19951;-39
2024/01/17 09:23:21;;;;;;;;;;;;;;;-2.94;100.00;99307.78;5075186;28;19919;-39
2024/01/17 09:25:46;;;;;;;;;;;;;;;-2.94;100.00;99297.22;5075413;28;19912;-39
2024/01/17 09:28:11;;;;;;;;;;;;;;;-2.94;100.00;99294.56;5075403;28;19948;-39
2024/01/17 09:30:37;;;;;;;;;;;;;;;-2.92;100.00;99289.13;5075304;28;19912;-39
2024/01/17 09:33:02;;;;;;;;;;;;;;;-2.87;100.00;99295.50;5075293;28;20340;-39
2024/01/17 09:35:32;;;;;;;;;;;;;;;-2.80;100.00;99294.75;5074916;28;20383;-39
2024/01/17 09:37:58;;;;;;;;;;;;;;;-2.73;100.00;99295.66;5074643;28;19916;-39
2024/01/17 09:40:23;;;;;;;;;;;;;;;-2.67;100.00;99287.81;5073689;28;19965;-39
2024/01/17 09:42:50;;;;;;;;;;;;;;;-2.63;100.00;99289.09;5075622;28;19948;-39
2024/01/17 09:45:16;;;;;;;;;;;;;;;-2.59;100.00;99281.59;5074454;28;19994;-39
2024/01/17 09:47:41;;;;;;;;;;;;;;;-2.52;100.00;99292.28;5075007;28;20372;-39
2024/01/17 09:50:07;;;;;;;;;;;;;;;-2.45;100.00;99282.59;5074411;28;19927;-39
2024/01/17 09:52:33;;;;;;;;;;;;;;;-2.41;100.00;99287.34;5075463;28;19913;-39
2024/01/17 09:54:59;;;;;;;;;;;;;;;-2.34;100.00;99290.91;5074427;28;19912;-39
2024/01/17 09:57:25;;;;;;;;;;;;;;;-2.28;100.00;99270.78;5074713;28;20016;-39
2024/01/17 09:59:58;;;;;;;;;;;;;;;-2.26;100.00;99275.91;5074519;28;20015;-39
2024/01/17 10:02:27;;;;;;;;;;;;;;;-2.27;100.00;99268.97;5075288;28;19958;-39
2024/01/17 10:04:53;;;;;;;;;;;;;;;-2.24;100.00;99269.41;5074357;28;20280;-39
2024/01/17 10:07:18;;;;;;;;;;;;;;;-2.20;100.00;99264.53;5074669;28;19931;-39
2024/01/17 10:09:44;;;;;;;;;;;;;;;-2.23;100.00;99264.94;5073991;28;19912;-39
2024/01/17 10:12:10;;;;;;;;;;;;;;;-2.25;100.00;99259.81;5074293;28;19916;-39
2024/01/17 10:14:35;;;;;;;;;;;;;;;-2.25;100.00;99254.50;5074455;28;19917;-39
2024/01/17 10:17:01;;;;;;;;;;;;;;;-2.24;100.00;99263.31;5074943;28;20371;-39
2024/01/17 10:19:26;;;;;;;;;;;;;;;-2.19;100.00;99255.63;5074189;28;19912;-39
2024/01/17 10:21:52;;;;;;;;;;;;;;;-2.16;100.00;99250.75;5073798;28;19958;-39
2024/01/17 10:24:17;;;;;;;;;;;;;;;-2.12;100.00;99246.72;5074113;28;19959;-39
2024/01/17 10:26:46;;;;;;;;;;;;;;;-2.10;100.00;99238.56;5074382;28;19913;-39
2024/01/17 10:29:11;;;;;;;;;;;;;;;-2.13;100.00;99233.69;5073372;28;20257;-39
2024/01/17 10:31:40;;;;;;;;;;;;;;;-2.12;100.00;99230.81;5074815;28;19991;-39
2024/01/17 10:34:07;;;;;;;;;;;;;;;-2.13;100.00;99233.69;5074302;28;19919;-39
2024/01/17 10:36:33;;;;;;;;;;;;;;;-2.11;100.00;99231.66;5074453;28;20304;-39
2024/01/17 10:39:05;;;;;;;;;;;;;;;-2.08;100.00;99232.09;5073843;28;19913;-39
2024/01/17 10:41:31;;;;;;;;;;;;;;;-2.01;100.00;99226.03;5073930;28;19912;-39
2024/01/17 10:43:57;;;;;;;;;;;;;;;-1.96;100.00;99219.16;5074117;28;20022;-39
2024/01/17 10:46:23;;;;;;;;;;;;;;;-1.89;100.00;99214.75;5074181;28;19913;-39
2024/01/17 10:48:49;;;;;;;;;;;;;;;-1.86;100.00;99219.66;5073749;28;19912;-39
2024/01/17 10:51:18;;;;;;;;;;;;;;;-1.84;100.00;99212.34;5073376;28;19912;-39
2024/01/17 10:53:46;;;;;;;;;;;;;;;-1.82;100.00;99205.03;5073390;28;19917;-39
2024/01/17 10:56:13;;;;;;;;;;;;;;;-1.79;100.00;99203.84;5074616;28;19956;-39
2024/01/17 10:58:38;;;;;;;;;;;;;;;-1.72;100.00;99199.38;5073925;28;19920;-39
2024/01/17 11:01:07;;;;;;;;;;;;;;;-1.66;100.00;99192.50;5073740;28;19985;-38
2024/01/17 11:03:36;;;;;;;;;;;;;;;-1.65;100.00;99179.06;5073385;28;19913;-39
2024/01/17 11:06:02;;;;;;;;;;;;;;;-1.62;100.00;99177.84;5074036;28;20272;-39
2024/01/17 11:08:28;;;;;;;;;;;;;;;-1.59;100.00;99177.47;5073601;28;20339;-39
2024/01/17 11:10:54;;;;;;;;;;;;;;;-1.62;100.00;99170.72;5073934;28;19913;-39
2024/01/17 11:13:20;;;;;;;;;;;;;;;-1.65;100.00;99167.66;5073606;28;19916;-39
2024/01/17 11:15:46;;;;;;;;;;;;;;;-1.62;100.00;99168.06;5073812;28;20383;-39
2024/01/17 11:18:12;;;;;;;;;;;;;;;-1.57;100.00;99159.53;5073530;28;20461;-39
2024/01/17 11:20:38;;;;;;;;;;;;;;;-1.53;100.00;99157.31;5073801;28;19912;-39
2024/01/17 11:23:04;;;;;;;;;;;;;;;-1.51;100.00;99156.13;5074341;28;19916;-39
2024/01/17 11:25:36;;;;;;;;;;;;;;;-1.49;100.00;99155.94;5073151;28;19917;-39
2024/01/17 11:28:06;;;;;;;;;;;;;;;-1.48;100.00;99153.06;5073451;28;19919;-39
2024/01/17 11:30:46;;;;;;;;;;;;;;;-1.50;100.00;99157.75;5073665;28;20360;-39
2024/01/17 11:33:13;;;;;;;;;;;;;;;-1.50;100.00;99151.66;5074033;28;19935;-37
2024/01/17 11:35:45;;;;;;;;;;;;;;;-1.48;100.00;99139.00;5072936;28;19918;-37
2024/01/17 11:38:27;;;;;;;;;;;;;;;-1.49;100.00;99146.13;5073910;28;19916;-38
2024/01/17 11:40:53;;;;;;;;;;;;;;;-1.44;100.00;99138.41;5073362;28;20365;-39
2024/01/17 11:43:19;;;;;;;;;;;;;;;-1.40;100.00;99133.56;5074189;28;19999;-39
2024/01/17 11:45:44;;;;;;;;;;;;;;;-1.37;100.00;99128.66;5073226;28;19912;-39
2024/01/17 11:48:22;;;;;;;;;;;;;;;-1.33;100.00;99126.44;5073054;28;19912;-39
2024/01/17 11:51:01;;;;;;;;;;;;;;;-1.28;100.00;99115.25;5073278;28;19919;-39
2024/01/17 11:53:30;;;;;;;;;;;;;;;-1.27;100.00;99111.56;5073220;28;19912;-39
2024/01/17 11:56:05;;;;;;;;;;;;;;;-1.26;100.00;99111.41;5073038;28;19916;-39
2024/01/17 11:58:40;;;;;;;;;;;;;;;-1.26;100.00;99089.38;5073702;28;19999;-39
2024/01/17 12:01:06;;;;;;;;;;;;;;;-1.25;100.00;99091.81;5074073;28;19912;-39
2024/01/17 12:03:31;;;;;;;;;;;;;;;-1.22;100.00;99087.94;5074983;28;19912;-39
2024/01/17 12:05:57;;;;;;;;;;;;;;;-1.21;100.00;99074.50;5077521;28;20257;-39
2024/01/17 12:08:22;;;;;;;;;;;;;;;-1.18;100.00;99073.25;5076897;28;19916;-39
2024/01/17 12:10:54;;;;;;;;;;;;;;;-1.16;100.00;99061.44;5077202;28;20061;-39
2024/01/17 12:13:20;;;;;;;;;;;;;;;-1.14;100.00;99045.31;5076655;28;20003;-39
2024/01/17 12:15:46;;;;;;;;;;;;;;;-1.15;100.00;99041.84;5076131;28;20046;-39
2024/01/17 12:18:11;;;;;;;;;;;;;;;-1.15;100.00;99033.91;5076801;28;19912;-39
2024/01/17 12:20:36;;;;;;;;;;;;;;;-1.12;100.00;99030.06;5076427;28;19919;-39
2024/01/17 12:23:02;;;;;;;;;;;;;;;-1.10;100.00;99022.69;5076427;28;20288;-39
2024/01/17 12:25:27;;;;;;;;;;;;;;;-1.09;100.00;99014.53;5076046;28;19919;-39
2024/01/17 12:27:56;;;;;;;;;;;;;;;-1.07;100.00;99007.22;5076939;28;20008;-39